Tensaw — WDF2525 — position and weather

sailwx.info

Track history (hours):
 
Tides and Currents Weather Stations Pressure Air Temp Water Temp Dewpoint Dewpoint Depression Visibility Wind Speed Wind Dir Waves Ship Positions

Tensaw

Owner: Enterprise Marine Services, LLC, San Antonio, TX. More information available from US FCC via Universal Licensing System and Coast Guard Vessel Documentation Center.

Last reported at 2018-Jan-12 14:59 UTC. Time now 2018-Jan-19 01:13 UTC.
Position N 29°36' W 090°41'.

Length 20 m; draft 2.7 m.

Type: . MMSI: 367127050.

Date/timePositionNaut miles runAvg speedWind from/ knotsBaromVisibWave heightAir tempDewpointWater temp
2018-Jan-12 14:59N 29°36' W 090°41'3 6.1
2018-Jan-12 14:30N 29°35' W 090°38'3 5.5
2018-Jan-12 14:00N 29°34' W 090°35'3 5.7
2018-Jan-12 13:30N 29°34' W 090°32'  
2018-Jan-03 04:15N 29°34' W 090°33'1 4.8
2018-Jan-03 04:00N 29°34' W 090°34'2 4.6
2018-Jan-03 03:29N 29°35' W 090°37'2 4.9
2018-Jan-03 03:00N 29°36' W 090°39'2 4.9
2018-Jan-03 02:30N 29°37' W 090°42'2 3.7
2018-Jan-03 02:00N 29°35' W 090°43'2 4.0
2018-Jan-03 01:30N 29°34' W 090°45'3 5.2
2018-Jan-03 01:00N 29°32' W 090°47'2 4.5
2018-Jan-03 00:30N 29°32' W 090°49'3 5.0
2018-Jan-02 23:58N 29°32' W 090°53'2 5.1
2018-Jan-02 23:29N 29°33' W 090°55'3 5.5
2018-Jan-02 22:51N 29°36' W 090°58'  
Track history (hours):
 
Tides and Currents Weather Stations Pressure Air Temp Water Temp Dewpoint Dewpoint Depression Visibility Wind Speed Wind Dir Waves Ship Positions

Tensaw

Owner: Enterprise Marine Services, LLC, San Antonio, TX. More information available from US FCC via Universal Licensing System and Coast Guard Vessel Documentation Center.

Last reported at 2018-Jan-12 14:59 UTC. Time now 2018-Jan-19 01:13 UTC.
Position N 29°36' W 090°41'.

Length 20 m; draft 2.7 m.

Type: . MMSI: 367127050.

Date/timePositionNaut miles runAvg speedWind from/ knotsBaromVisibWave heightAir tempDewpointWater temp
2018-Jan-12 14:59N 29°36' W 090°41'3 6.1
2018-Jan-12 14:30N 29°35' W 090°38'3 5.5
2018-Jan-12 14:00N 29°34' W 090°35'3 5.7
2018-Jan-12 13:30N 29°34' W 090°32'  
2018-Jan-03 04:15N 29°34' W 090°33'1 4.8
2018-Jan-03 04:00N 29°34' W 090°34'2 4.6
2018-Jan-03 03:29N 29°35' W 090°37'2 4.9
2018-Jan-03 03:00N 29°36' W 090°39'2 4.9
2018-Jan-03 02:30N 29°37' W 090°42'2 3.7
2018-Jan-03 02:00N 29°35' W 090°43'2 4.0
2018-Jan-03 01:30N 29°34' W 090°45'3 5.2
2018-Jan-03 01:00N 29°32' W 090°47'2 4.5
2018-Jan-03 00:30N 29°32' W 090°49'3 5.0
2018-Jan-02 23:58N 29°32' W 090°53'2 5.1
2018-Jan-02 23:29N 29°33' W 090°55'3 5.5
2018-Jan-02 22:51N 29°36' W 090°58'  

Dump ship's entire track history